createdAt,value
2017-12-19T00:00:40.049Z,92.47
2017-12-19T00:01:40.041Z,92.66
2017-12-19T00:02:40.033Z,92.38
2017-12-19T00:03:40.025Z,92.76
2017-12-19T00:04:40.018Z,93.04
2017-12-19T00:05:40.011Z,93.13
2017-12-19T00:06:40.002Z,93.13
2017-12-19T00:07:39.995Z,92.66
2017-12-19T00:08:39.988Z,92.29
2017-12-19T00:09:39.980Z,92.00
2017-12-19T00:10:39.972Z,91.81
2017-12-19T00:11:39.966Z,91.91
2017-12-19T00:12:39.958Z,92.19
2017-12-19T00:13:39.950Z,92.19
2017-12-19T00:14:39.942Z,91.81
2017-12-19T00:15:39.934Z,91.72
2017-12-19T00:16:39.927Z,92.10
2017-12-19T00:17:39.920Z,92.47
2017-12-19T00:18:39.912Z,92.38
2017-12-19T00:19:39.905Z,92.29
2017-12-19T00:20:39.898Z,92.47
2017-12-19T00:21:39.891Z,92.57
2017-12-19T00:22:39.882Z,93.42
2017-12-19T00:23:39.874Z,93.04
2017-12-19T00:24:39.869Z,93.32
2017-12-19T00:25:39.860Z,93.51
2017-12-19T00:26:39.855Z,93.32
2017-12-19T00:27:39.846Z,93.61
2017-12-19T00:28:39.838Z,92.47
2017-12-19T00:29:39.829Z,92.85
2017-12-19T00:30:39.822Z,93.04
2017-12-19T00:31:39.814Z,92.66
2017-12-19T00:32:39.807Z,92.94
2017-12-19T00:33:39.800Z,92.66
2017-12-19T00:34:39.791Z,92.66
2017-12-19T00:35:39.785Z,93.04
2017-12-19T00:36:39.777Z,93.13
2017-12-19T00:37:39.769Z,92.66
2017-12-19T00:38:39.761Z,92.85
2017-12-19T00:39:39.753Z,93.13
2017-12-19T00:40:39.747Z,93.13
2017-12-19T00:41:39.739Z,92.80
2017-12-19T00:42:39.731Z,93.18
2017-12-19T00:43:39.724Z,93.51
2017-12-19T00:44:39.716Z,93.94
2017-12-19T00:45:39.710Z,94.03
2017-12-19T00:46:39.701Z,94.03
2017-12-19T00:47:39.693Z,93.75
2017-12-19T00:48:39.687Z,93.75
2017-12-19T00:49:39.679Z,93.42
2017-12-19T00:50:39.671Z,93.99
2017-12-19T00:51:39.664Z,93.84
2017-12-19T00:52:39.657Z,94.03
2017-12-19T00:53:39.649Z,93.66
2017-12-19T00:54:39.640Z,93.56
2017-12-19T00:55:39.632Z,93.47
2017-12-19T00:56:39.627Z,93.09
2017-12-19T00:57:39.618Z,93.56
2017-12-19T00:58:39.610Z,93.18
2017-12-19T00:59:39.602Z,93.09
2017-12-19T01:00:39.594Z,93.56
2017-12-19T01:01:39.589Z,93.94
2017-12-19T01:02:39.578Z,94.03
2017-12-19T01:03:39.573Z,93.47
2017-12-19T01:04:39.563Z,94.13
2017-12-19T01:05:39.558Z,93.56
2017-12-19T01:06:39.548Z,93.70
2017-12-19T01:07:39.541Z,93.51
2017-12-19T01:08:39.534Z,93.09
2017-12-19T01:09:39.527Z,93.09
2017-12-19T01:10:39.519Z,93.89
2017-12-19T01:11:39.511Z,93.47
2017-12-19T01:12:39.504Z,92.66
2017-12-19T01:13:39.496Z,93.13
2017-12-19T01:14:39.487Z,92.47
2017-12-19T01:15:39.480Z,92.19
2017-12-19T01:16:39.472Z,92.00
2017-12-19T01:17:39.466Z,91.72
2017-12-19T01:18:39.458Z,91.24
2017-12-19T01:19:39.450Z,92.10
2017-12-19T01:20:39.443Z,92.00
2017-12-19T01:21:39.435Z,91.34
2017-12-19T01:22:39.474Z,91.53
2017-12-19T01:23:39.421Z,92.19
2017-12-19T01:24:39.412Z,92.29
2017-12-19T01:25:39.405Z,92.38
2017-12-19T01:26:39.397Z,92.10
2017-12-19T01:27:39.427Z,91.81
2017-12-19T01:28:39.383Z,90.86
2017-12-19T01:29:39.374Z,90.77
2017-12-19T01:30:39.373Z,90.68
2017-12-19T01:31:39.358Z,90.49
2017-12-19T01:32:39.351Z,90.86
2017-12-19T01:33:39.344Z,91.15
2017-12-19T01:34:39.337Z,91.15
2017-12-19T01:35:39.329Z,91.05
2017-12-19T01:36:39.321Z,90.49
2017-12-19T01:37:39.314Z,90.58
2017-12-19T01:38:39.305Z,90.20
2017-12-19T01:39:39.298Z,90.11
2017-12-19T01:40:39.291Z,90.11
2017-12-19T01:41:39.289Z,90.39
2017-12-19T01:42:39.277Z,90.39
2017-12-19T01:43:39.278Z,90.86
2017-12-19T01:44:39.261Z,90.49
2017-12-19T01:45:39.253Z,90.01
2017-12-19T01:46:39.245Z,89.92
2017-12-19T01:47:39.238Z,89.73
2017-12-19T01:48:39.231Z,89.73
2017-12-19T01:49:39.223Z,89.45
2017-12-19T01:50:39.215Z,89.92
2017-12-19T01:51:39.208Z,90.39
2017-12-19T01:52:39.204Z,89.92
2017-12-19T01:53:39.192Z,90.49
2017-12-19T01:54:39.185Z,90.86
2017-12-19T01:55:39.176Z,90.86
2017-12-19T01:56:39.171Z,90.68
2017-12-19T01:57:39.162Z,90.20
2017-12-19T01:58:39.154Z,89.36
2017-12-19T01:59:39.147Z,89.45
2017-12-19T02:00:39.139Z,89.92
2017-12-19T02:01:39.133Z,90.01
2017-12-19T02:02:39.123Z,90.01
2017-12-19T02:03:39.118Z,89.92
2017-12-19T02:04:39.111Z,90.20
2017-12-19T02:05:39.101Z,90.01
2017-12-19T02:06:39.095Z,89.36
2017-12-19T02:07:39.086Z,89.26
2017-12-19T02:08:39.079Z,89.92
2017-12-19T02:09:39.071Z,89.73
2017-12-19T02:10:39.063Z,89.17
2017-12-19T02:11:39.056Z,89.07
2017-12-19T02:12:39.048Z,89.54
2017-12-19T02:13:39.042Z,89.64
2017-12-19T02:14:39.034Z,90.20
2017-12-19T02:15:39.025Z,89.64
2017-12-19T02:16:39.018Z,89.45
2017-12-19T02:17:39.011Z,89.17
2017-12-19T02:18:39.004Z,89.17
2017-12-19T02:19:38.996Z,88.50
2017-12-19T02:20:38.989Z,88.12
2017-12-19T02:21:38.980Z,88.79
2017-12-19T02:22:38.972Z,88.31
2017-12-19T02:23:38.965Z,88.41
2017-12-19T02:24:38.959Z,88.50
2017-12-19T02:25:38.952Z,88.31
2017-12-19T02:26:38.944Z,87.65
2017-12-19T02:27:38.942Z,88.12
2017-12-19T02:28:38.938Z,87.93
2017-12-19T02:29:38.927Z,88.41
2017-12-19T02:30:38.913Z,88.60
2017-12-19T02:31:38.912Z,88.41
2017-12-19T02:32:38.899Z,89.07
2017-12-19T02:33:38.892Z,88.88
2017-12-19T02:34:38.882Z,88.98
2017-12-19T02:35:38.877Z,88.88
2017-12-19T02:36:38.868Z,88.79
2017-12-19T02:37:38.860Z,88.98
2017-12-19T02:38:38.853Z,89.17
2017-12-19T02:39:38.844Z,89.17
2017-12-19T02:40:38.839Z,89.17
2017-12-19T02:41:38.830Z,89.26
2017-12-19T02:42:38.823Z,88.60
2017-12-19T02:43:38.816Z,89.73
2017-12-19T02:44:38.810Z,89.54
2017-12-19T02:45:38.801Z,89.73
2017-12-19T02:46:38.793Z,90.01
2017-12-19T02:47:38.786Z,89.73
2017-12-19T02:48:38.778Z,89.64
2017-12-19T02:49:38.771Z,90.11
2017-12-19T02:50:38.763Z,90.11
2017-12-19T02:51:38.754Z,90.20
2017-12-19T02:52:38.749Z,89.73
2017-12-19T02:53:38.741Z,89.73
2017-12-19T02:54:38.733Z,89.64
2017-12-19T02:55:38.726Z,90.39
2017-12-19T02:56:38.717Z,89.73
2017-12-19T02:57:38.710Z,90.11
2017-12-19T02:58:38.702Z,90.20
2017-12-19T02:59:38.695Z,89.92
2017-12-19T03:00:38.689Z,90.20
2017-12-19T03:01:38.680Z,90.39
2017-12-19T03:02:38.673Z,90.39
2017-12-19T03:03:38.666Z,90.01
2017-12-19T03:04:38.659Z,90.30
2017-12-19T03:05:38.653Z,90.39
2017-12-19T03:06:38.642Z,90.30
2017-12-19T03:07:38.635Z,90.11
2017-12-19T03:08:38.628Z,90.11
2017-12-19T03:09:38.621Z,90.49
2017-12-19T03:10:38.612Z,90.30
2017-12-19T03:11:38.606Z,90.20
2017-12-19T03:12:38.597Z,90.01
2017-12-19T03:13:38.590Z,90.11
2017-12-19T03:14:38.582Z,89.64
2017-12-19T03:15:38.574Z,89.73
2017-12-19T03:16:38.568Z,89.45
2017-12-19T03:17:38.560Z,89.54
2017-12-19T03:18:38.553Z,89.45
2017-12-19T03:19:38.546Z,89.36
2017-12-19T03:20:38.537Z,89.17
2017-12-19T03:21:38.530Z,89.26
2017-12-19T03:22:38.523Z,89.26
2017-12-19T03:23:38.515Z,89.45
2017-12-19T03:24:38.506Z,89.83
2017-12-19T03:25:38.500Z,88.88
2017-12-19T03:26:38.530Z,89.26
2017-12-19T03:27:38.484Z,88.98
2017-12-19T03:28:38.478Z,89.07
2017-12-19T03:29:38.471Z,88.98
2017-12-19T03:30:38.463Z,89.26
2017-12-19T03:31:38.456Z,89.07
2017-12-19T03:32:38.448Z,89.17
2017-12-19T03:33:38.439Z,88.88
2017-12-19T03:34:38.433Z,88.03
2017-12-19T03:35:38.424Z,87.46
2017-12-19T03:36:38.417Z,87.46
2017-12-19T03:37:38.409Z,88.79
2017-12-19T03:38:38.402Z,88.79
2017-12-19T03:39:38.395Z,88.88
2017-12-19T03:40:38.387Z,88.88
2017-12-19T03:41:38.380Z,88.50
2017-12-19T03:42:38.371Z,89.17
2017-12-19T03:43:38.365Z,89.36
2017-12-19T03:44:38.357Z,88.98
2017-12-19T03:45:38.350Z,88.60
2017-12-19T03:46:38.342Z,88.41
2017-12-19T03:47:38.334Z,88.69
2017-12-19T03:48:38.326Z,88.41
2017-12-19T03:49:38.319Z,88.98
2017-12-19T03:50:38.312Z,88.98
2017-12-19T03:51:38.305Z,88.60
2017-12-19T03:52:38.296Z,88.88
2017-12-19T03:53:38.340Z,89.26
2017-12-19T03:54:38.280Z,88.79
2017-12-19T03:55:38.272Z,88.31
2017-12-19T03:56:38.267Z,88.69
2017-12-19T03:57:38.259Z,88.88
2017-12-19T03:58:38.251Z,88.31
2017-12-19T03:59:38.242Z,87.84
2017-12-19T04:00:38.236Z,87.55
2017-12-19T04:01:38.229Z,87.46
2017-12-19T04:02:38.220Z,88.03
2017-12-19T04:03:38.214Z,88.12
2017-12-19T04:04:38.205Z,87.84
2017-12-19T04:05:38.198Z,88.69
2017-12-19T04:06:38.190Z,88.41
2017-12-19T04:07:38.182Z,88.88
2017-12-19T04:08:38.176Z,88.88
2017-12-19T04:09:38.167Z,88.69
2017-12-19T04:10:38.159Z,87.74
2017-12-19T04:11:38.153Z,88.03
2017-12-19T04:12:38.145Z,87.27
2017-12-19T04:13:38.138Z,87.93
2017-12-19T04:14:38.129Z,88.31
2017-12-19T04:15:38.121Z,87.84
2017-12-19T04:16:38.114Z,88.12
2017-12-19T04:17:38.107Z,88.12
2017-12-19T04:18:38.099Z,88.31
2017-12-19T04:19:38.092Z,88.74
2017-12-19T04:20:38.085Z,88.17
2017-12-19T04:21:38.077Z,88.79
2017-12-19T04:22:38.067Z,88.93
2017-12-19T04:23:38.060Z,89.59
2017-12-19T04:24:38.052Z,89.59
2017-12-19T04:25:38.045Z,89.59
2017-12-19T04:26:38.036Z,89.59
2017-12-19T04:27:38.028Z,89.69
2017-12-19T04:28:38.022Z,89.97
2017-12-19T04:29:38.013Z,90.16
2017-12-19T04:30:38.007Z,89.97
2017-12-19T04:31:37.998Z,89.97
2017-12-19T04:32:37.991Z,89.87
2017-12-19T04:33:37.983Z,90.06
2017-12-19T04:34:37.974Z,90.25
2017-12-19T04:35:37.966Z,90.01
2017-12-19T04:36:37.959Z,89.40
2017-12-19T04:37:37.954Z,89.73
2017-12-19T04:38:37.943Z,88.88
2017-12-19T04:39:37.935Z,88.79
2017-12-19T04:40:37.929Z,88.12
2017-12-19T04:41:37.920Z,87.74
2017-12-19T04:42:37.912Z,87.84
2017-12-19T04:43:37.908Z,87.74
2017-12-19T04:44:37.897Z,87.37
2017-12-19T04:45:37.889Z,87.46
2017-12-19T04:46:37.881Z,87.84
2017-12-19T04:47:37.873Z,87.65
2017-12-19T04:48:37.866Z,87.65
2017-12-19T04:49:37.859Z,87.08
2017-12-19T04:50:37.852Z,86.99
2017-12-19T04:51:37.844Z,86.99
2017-12-19T04:52:37.837Z,86.80
2017-12-19T04:53:37.828Z,86.61
2017-12-19T04:54:37.825Z,86.42
2017-12-19T04:55:37.814Z,86.80
2017-12-19T04:56:37.806Z,86.52
2017-12-19T04:57:37.797Z,86.71
2017-12-19T04:58:37.790Z,87.37
2017-12-19T04:59:37.782Z,87.65
2017-12-19T05:00:37.775Z,87.84
2017-12-19T05:01:37.767Z,88.03
2017-12-19T05:02:37.765Z,87.84
2017-12-19T05:03:37.754Z,88.41
2017-12-19T05:04:37.744Z,88.41
2017-12-19T05:05:37.738Z,88.98
2017-12-19T05:06:37.730Z,88.98
2017-12-19T05:07:37.722Z,89.26
2017-12-19T05:08:37.713Z,88.50
2017-12-19T05:09:37.707Z,87.93
2017-12-19T05:10:37.700Z,88.31
2017-12-19T05:11:37.691Z,87.93
2017-12-19T05:12:37.684Z,88.12
2017-12-19T05:13:37.676Z,88.22
2017-12-19T05:14:37.669Z,88.69
2017-12-19T05:15:37.662Z,87.74
2017-12-19T05:16:37.654Z,87.84
2017-12-19T05:17:37.646Z,88.79
2017-12-19T05:18:37.638Z,88.69
2017-12-19T05:19:37.632Z,89.26
2017-12-19T05:20:37.625Z,89.54
2017-12-19T05:21:37.616Z,89.54
2017-12-19T05:22:37.610Z,89.36
2017-12-19T05:23:37.601Z,89.92
2017-12-19T05:24:37.595Z,89.17
2017-12-19T05:25:37.588Z,88.79
2017-12-19T05:26:37.580Z,89.07
2017-12-19T05:27:37.571Z,89.26
2017-12-19T05:28:37.565Z,89.54
2017-12-19T05:29:37.557Z,90.11
2017-12-19T05:30:37.550Z,89.45
2017-12-19T05:31:37.542Z,90.01
2017-12-19T05:32:37.534Z,89.92
2017-12-19T05:33:37.527Z,89.73
2017-12-19T05:34:37.518Z,89.73
2017-12-19T05:35:37.510Z,90.01
2017-12-19T05:36:37.506Z,90.11
2017-12-19T05:37:37.497Z,89.83
2017-12-19T05:38:37.488Z,89.92
2017-12-19T05:39:37.481Z,89.07
2017-12-19T05:40:37.474Z,89.64
2017-12-19T05:41:37.467Z,89.64
2017-12-19T05:42:37.460Z,89.64
2017-12-19T05:43:37.451Z,90.11
2017-12-19T05:44:37.445Z,90.20
2017-12-19T05:45:37.436Z,90.01
2017-12-19T05:46:37.428Z,90.39
2017-12-19T05:47:37.427Z,90.20
2017-12-19T05:48:37.415Z,90.01
2017-12-19T05:49:37.408Z,90.30
2017-12-19T05:50:37.398Z,90.39
2017-12-19T05:51:37.391Z,90.01
2017-12-19T05:52:37.384Z,90.30
2017-12-19T05:53:37.377Z,89.73
2017-12-19T05:54:37.368Z,89.54
2017-12-19T05:55:37.363Z,89.73
2017-12-19T05:56:37.353Z,89.64
2017-12-19T05:57:37.347Z,90.20
2017-12-19T05:58:37.339Z,89.45
2017-12-19T05:59:37.330Z,89.73
2017-12-19T06:00:37.323Z,90.11
2017-12-19T06:01:37.317Z,89.54
2017-12-19T06:02:37.308Z,89.64
2017-12-19T06:03:37.302Z,89.54
2017-12-19T06:04:37.294Z,89.26
2017-12-19T06:05:37.286Z,89.83
2017-12-19T06:06:37.278Z,89.83
2017-12-19T06:07:37.272Z,89.73
2017-12-19T06:08:37.263Z,89.54
2017-12-19T06:09:37.257Z,89.83
2017-12-19T06:10:37.248Z,90.01
2017-12-19T06:11:37.241Z,90.30
2017-12-19T06:12:37.233Z,89.92
2017-12-19T06:13:37.226Z,90.01
2017-12-19T06:14:37.218Z,90.11
2017-12-19T06:15:37.212Z,89.64
2017-12-19T06:16:37.203Z,90.01
2017-12-19T06:17:37.196Z,89.73
2017-12-19T06:18:37.190Z,89.54
2017-12-19T06:19:37.181Z,89.36
2017-12-19T06:20:37.175Z,89.73
2017-12-19T06:21:37.173Z,90.39
2017-12-19T06:22:37.159Z,89.73
2017-12-19T06:23:37.151Z,89.73
2017-12-19T06:24:37.144Z,89.83
2017-12-19T06:25:37.138Z,90.01
2017-12-19T06:26:37.128Z,89.92
2017-12-19T06:27:37.122Z,91.15
2017-12-19T06:28:37.114Z,90.49
2017-12-19T06:29:37.106Z,90.49
2017-12-19T06:30:37.100Z,91.15
2017-12-19T06:31:37.091Z,91.24
2017-12-19T06:32:37.085Z,91.53
2017-12-19T06:33:37.077Z,91.72
2017-12-19T06:34:37.069Z,91.86
2017-12-19T06:35:37.063Z,92.10
2017-12-19T06:36:37.054Z,92.38
2017-12-19T06:37:37.047Z,91.81
2017-12-19T06:38:37.040Z,91.34
2017-12-19T06:39:37.031Z,91.53
2017-12-19T06:40:37.024Z,91.05
2017-12-19T06:41:37.017Z,90.86
2017-12-19T06:42:37.009Z,90.49
2017-12-19T06:43:37.002Z,90.01
2017-12-19T06:44:36.994Z,90.11
2017-12-19T06:45:36.987Z,89.64
2017-12-19T06:46:36.978Z,89.36
2017-12-19T06:47:36.973Z,89.64
2017-12-19T06:48:36.964Z,90.11
2017-12-19T06:49:36.956Z,90.49
2017-12-19T06:50:36.949Z,90.68
2017-12-19T06:51:36.942Z,90.49
2017-12-19T06:52:36.933Z,90.58
2017-12-19T06:53:36.927Z,90.30
2017-12-19T06:54:36.918Z,90.58
2017-12-19T06:55:36.911Z,90.20
2017-12-19T06:56:36.903Z,89.73
2017-12-19T06:57:36.897Z,90.39
2017-12-19T06:58:36.888Z,89.92
2017-12-19T06:59:36.881Z,90.30
2017-12-19T07:00:36.875Z,90.20
2017-12-19T07:01:36.866Z,90.01
2017-12-19T07:02:36.859Z,90.01
2017-12-19T07:03:36.851Z,89.64
2017-12-19T07:04:36.844Z,89.92
2017-12-19T07:05:36.837Z,90.11
2017-12-19T07:06:36.828Z,89.54
2017-12-19T07:07:36.821Z,89.64
2017-12-19T07:08:36.814Z,89.54
2017-12-19T07:09:36.806Z,88.98
2017-12-19T07:10:36.798Z,89.26
2017-12-19T07:11:36.792Z,89.54
2017-12-19T07:12:36.785Z,90.39
2017-12-19T07:13:36.777Z,90.30
2017-12-19T07:14:36.770Z,90.20
2017-12-19T07:15:36.762Z,90.58
2017-12-19T07:16:36.754Z,90.20
2017-12-19T07:17:36.752Z,89.83
2017-12-19T07:18:36.739Z,89.54
2017-12-19T07:19:36.733Z,89.36
2017-12-19T07:20:36.724Z,89.45
2017-12-19T07:21:36.717Z,89.64
2017-12-19T07:22:36.709Z,90.11
2017-12-19T07:23:36.701Z,89.64
2017-12-19T07:24:36.695Z,89.83
2017-12-19T07:25:36.688Z,90.01
2017-12-19T07:26:36.681Z,90.30
2017-12-19T07:27:36.673Z,90.39
2017-12-19T07:28:36.666Z,90.68
2017-12-19T07:29:36.659Z,90.96
2017-12-19T07:30:36.649Z,90.68
2017-12-19T07:31:36.643Z,90.96
2017-12-19T07:32:36.635Z,90.86
2017-12-19T07:33:36.629Z,90.86
2017-12-19T07:34:36.628Z,90.77
2017-12-19T07:35:36.612Z,90.86
2017-12-19T07:36:36.609Z,90.58
2017-12-19T07:37:36.598Z,90.49
2017-12-19T07:38:36.598Z,90.39
2017-12-19T07:39:36.583Z,90.39
2017-12-19T07:40:36.575Z,89.83
2017-12-19T07:41:36.570Z,89.83
2017-12-19T07:42:36.560Z,89.17
2017-12-19T07:43:36.553Z,89.07
2017-12-19T07:44:36.548Z,88.88
2017-12-19T07:45:36.540Z,89.17
2017-12-19T07:46:36.530Z,88.98
2017-12-19T07:47:36.525Z,88.98
2017-12-19T07:48:36.516Z,89.17
2017-12-19T07:49:36.510Z,89.17
2017-12-19T07:50:36.501Z,88.98
2017-12-19T07:51:36.494Z,89.17
2017-12-19T07:52:36.488Z,89.17
2017-12-19T07:53:36.481Z,88.79
2017-12-19T07:54:36.475Z,89.26
2017-12-19T07:55:36.466Z,89.73
2017-12-19T07:56:36.459Z,89.54
2017-12-19T07:57:36.451Z,90.30
2017-12-19T07:58:36.444Z,90.01
2017-12-19T07:59:36.436Z,90.68
2017-12-19T08:00:36.429Z,89.92
2017-12-19T08:01:36.422Z,90.30
2017-12-19T08:02:36.412Z,89.92
2017-12-19T08:03:36.405Z,90.39
2017-12-19T08:04:36.398Z,90.01
2017-12-19T08:05:36.391Z,90.20
2017-12-19T08:06:36.383Z,89.73
2017-12-19T08:07:36.376Z,89.73
2017-12-19T08:08:36.370Z,89.73
2017-12-19T08:09:36.363Z,89.83
2017-12-19T08:10:36.353Z,89.17
2017-12-19T08:11:36.347Z,88.88
2017-12-19T08:12:36.339Z,88.98
2017-12-19T08:13:36.334Z,89.45
2017-12-19T08:14:36.325Z,89.45
2017-12-19T08:15:36.318Z,90.01
2017-12-19T08:16:36.310Z,90.20
2017-12-19T08:17:36.304Z,90.49
2017-12-19T08:18:36.295Z,90.86
2017-12-19T08:19:36.288Z,90.11
2017-12-19T08:20:36.484Z,90.96
2017-12-19T08:21:36.274Z,90.11
2017-12-19T08:22:36.267Z,90.20
2017-12-19T08:23:36.259Z,90.68
2017-12-19T08:24:36.252Z,90.77
2017-12-19T08:25:36.246Z,90.77
2017-12-19T08:26:36.237Z,90.30
2017-12-19T08:27:36.230Z,90.30
2017-12-19T08:28:36.223Z,90.30
2017-12-19T08:29:36.217Z,90.01
2017-12-19T08:30:36.208Z,90.30
2017-12-19T08:31:36.322Z,89.92
2017-12-19T08:32:36.194Z,89.54
2017-12-19T08:33:36.188Z,89.07
2017-12-19T08:34:36.180Z,88.69
2017-12-19T08:35:36.173Z,88.93
2017-12-19T08:36:36.165Z,88.50
2017-12-19T08:37:36.160Z,88.45
2017-12-19T08:38:36.158Z,88.74
2017-12-19T08:39:36.145Z,88.55
2017-12-19T08:40:36.137Z,87.98
2017-12-19T08:41:36.131Z,87.88
2017-12-19T08:42:36.122Z,87.88
2017-12-19T08:43:36.115Z,87.88
2017-12-19T08:44:36.110Z,87.88
2017-12-19T08:45:36.103Z,87.32
2017-12-19T08:46:36.096Z,87.37
2017-12-19T08:47:36.088Z,87.98
2017-12-19T08:48:36.081Z,88.17
2017-12-19T08:49:36.078Z,88.45
2017-12-19T08:50:36.065Z,89.02
2017-12-19T08:51:36.060Z,88.69
2017-12-19T08:52:36.052Z,88.69
2017-12-19T08:53:36.047Z,88.07
2017-12-19T08:54:36.038Z,87.98
2017-12-19T08:55:36.031Z,87.98
2017-12-19T08:56:36.025Z,87.88
2017-12-19T08:57:36.018Z,87.70
2017-12-19T08:58:36.010Z,87.70
2017-12-19T08:59:36.004Z,87.32
2017-12-19T09:00:35.997Z,87.23
2017-12-19T09:01:35.991Z,87.70
2017-12-19T09:02:35.983Z,87.41
2017-12-19T09:03:35.976Z,87.23
2017-12-19T09:04:35.970Z,87.70
2017-12-19T09:05:35.961Z,87.70
2017-12-19T09:06:35.954Z,87.32
2017-12-19T09:07:35.953Z,87.41
2017-12-19T09:08:35.946Z,87.41
2017-12-19T09:09:35.935Z,87.98
2017-12-19T09:10:35.928Z,87.70
2017-12-19T09:11:35.920Z,87.51
2017-12-19T09:12:35.916Z,87.23
2017-12-19T09:13:35.911Z,86.75
2017-12-19T09:14:35.900Z,86.75
2017-12-19T09:15:35.894Z,86.85
2017-12-19T09:16:35.887Z,87.23
2017-12-19T09:17:35.880Z,87.41
2017-12-19T09:18:35.872Z,86.66
2017-12-19T09:19:35.866Z,85.90
2017-12-19T09:20:35.859Z,85.90
2017-12-19T09:21:35.876Z,86.18
2017-12-19T09:22:35.847Z,85.71
2017-12-19T09:23:35.840Z,85.71
2017-12-19T09:24:35.832Z,85.24
2017-12-19T09:25:35.827Z,85.61
2017-12-19T09:26:35.819Z,84.86
2017-12-19T09:27:35.814Z,84.77
2017-12-19T09:28:35.806Z,84.58
2017-12-19T09:29:35.800Z,84.29
2017-12-19T09:30:35.818Z,84.01
2017-12-19T09:31:35.787Z,84.39
2017-12-19T09:32:35.781Z,84.29
2017-12-19T09:33:35.776Z,84.20
2017-12-19T09:34:35.769Z,84.33
2017-12-19T09:35:35.771Z,83.48
2017-12-19T09:36:35.756Z,83.58
2017-12-19T09:37:35.750Z,83.48
2017-12-19T09:38:35.742Z,83.48
2017-12-19T09:39:35.736Z,83.10
2017-12-19T09:40:35.729Z,83.20
2017-12-19T09:41:35.723Z,83.10
2017-12-19T09:42:35.717Z,83.48
2017-12-19T09:43:35.711Z,83.67
2017-12-19T09:44:35.705Z,83.58
2017-12-19T09:45:35.697Z,83.10
2017-12-19T09:46:35.691Z,83.48
2017-12-19T09:47:35.684Z,83.01
2017-12-19T09:48:35.680Z,83.10
2017-12-19T09:49:35.673Z,83.29
2017-12-19T09:50:35.666Z,83.48
2017-12-19T09:51:35.968Z,83.29
2017-12-19T09:52:35.654Z,83.20
2017-12-19T09:53:35.648Z,82.91
2017-12-19T09:54:35.642Z,82.82
2017-12-19T09:55:35.635Z,82.82
2017-12-19T09:56:35.629Z,82.82
2017-12-19T09:57:35.623Z,82.34
2017-12-19T09:58:35.616Z,82.72
2017-12-19T09:59:35.612Z,82.72
2017-12-19T10:00:35.604Z,83.48
2017-12-19T10:01:35.598Z,83.29
2017-12-19T10:02:35.593Z,84.05
2017-12-19T10:03:35.585Z,83.95
2017-12-19T10:04:35.580Z,84.61
2017-12-19T10:05:35.575Z,84.71
2017-12-19T10:06:35.567Z,83.95
2017-12-19T10:07:35.562Z,84.33
2017-12-19T10:08:35.556Z,84.61
2017-12-19T10:09:35.551Z,84.52
2017-12-19T10:10:35.543Z,84.42
2017-12-19T10:11:35.540Z,84.14
2017-12-19T10:12:35.532Z,84.14
2017-12-19T10:13:35.526Z,83.48
2017-12-19T10:14:35.518Z,83.01
2017-12-19T10:15:35.514Z,82.53
2017-12-19T10:16:35.554Z,82.34
2017-12-19T10:17:35.524Z,82.06
2017-12-19T10:18:35.496Z,81.77
2017-12-19T10:19:35.490Z,81.49
2017-12-19T10:20:35.485Z,82.15
2017-12-19T10:21:35.478Z,82.10
2017-12-19T10:22:35.491Z,81.72
2017-12-19T10:23:35.468Z,81.34
2017-12-19T10:24:35.461Z,80.77
2017-12-19T10:25:35.456Z,79.83
2017-12-19T10:26:35.451Z,79.64
2017-12-19T10:27:35.477Z,79.36
2017-12-19T10:28:35.439Z,79.36
2017-12-19T10:29:35.434Z,79.74
2017-12-19T10:30:35.429Z,80.40
2017-12-19T10:31:35.423Z,80.11
2017-12-19T10:32:35.418Z,80.40
2017-12-19T10:33:35.413Z,79.74
2017-12-19T10:34:35.409Z,78.88
2017-12-19T10:35:35.427Z,78.79
2017-12-19T10:36:35.398Z,79.36
2017-12-19T10:37:35.400Z,79.45
2017-12-19T10:38:35.388Z,79.64
2017-12-19T10:39:35.384Z,79.64
2017-12-19T10:40:35.379Z,79.45
2017-12-19T10:41:35.373Z,79.74
2017-12-19T10:42:35.367Z,78.88
2017-12-19T10:43:35.362Z,79.64
2017-12-19T10:44:35.358Z,79.26
2017-12-19T10:45:35.352Z,79.07
2017-12-19T10:46:35.348Z,78.98
2017-12-19T10:47:35.343Z,79.45
2017-12-19T10:48:35.351Z,78.88
2017-12-19T10:49:35.334Z,80.68
2017-12-19T10:50:35.326Z,80.58
2017-12-19T10:51:35.323Z,80.21
2017-12-19T10:52:35.318Z,80.77
2017-12-19T10:53:35.313Z,80.30
2017-12-19T10:54:35.307Z,79.83
2017-12-19T10:55:35.302Z,80.58
2017-12-19T10:56:35.298Z,80.68
2017-12-19T10:57:35.294Z,80.40
2017-12-19T10:58:35.288Z,80.02
2017-12-19T10:59:35.282Z,80.77
2017-12-19T11:00:35.278Z,81.06
2017-12-19T11:01:35.273Z,80.96
2017-12-19T11:02:35.266Z,80.49
2017-12-19T11:03:35.262Z,80.11
2017-12-19T11:04:35.257Z,79.83
2017-12-19T11:05:35.252Z,79.36
2017-12-19T11:06:35.246Z,79.55
2017-12-19T11:07:35.241Z,80.58
2017-12-19T11:08:35.238Z,80.77
2017-12-19T11:09:35.232Z,80.30
2017-12-19T11:10:35.226Z,79.55
2017-12-19T11:11:35.221Z,79.36
2017-12-19T11:12:35.217Z,79.30
2017-12-19T11:13:35.217Z,79.49
2017-12-19T11:14:35.208Z,79.58
2017-12-19T11:15:35.202Z,79.77
2017-12-19T11:16:35.198Z,79.68
2017-12-19T11:17:35.194Z,79.26
2017-12-19T11:18:35.189Z,78.98
2017-12-19T11:19:35.182Z,78.79
2017-12-19T11:20:35.180Z,79.36
2017-12-19T11:21:35.175Z,80.58
2017-12-19T11:22:35.169Z,80.21
2017-12-19T11:23:35.165Z,80.68
2017-12-19T11:24:35.161Z,80.87
2017-12-19T11:25:35.156Z,80.96
2017-12-19T11:26:35.150Z,80.11
2017-12-19T11:27:35.147Z,80.58
2017-12-19T11:28:35.141Z,80.21
2017-12-19T11:29:35.137Z,80.30
2017-12-19T11:30:35.131Z,80.30
2017-12-19T11:31:35.127Z,80.21
2017-12-19T11:32:35.124Z,79.58
2017-12-19T11:33:35.119Z,79.49
2017-12-19T11:34:35.115Z,79.77
2017-12-19T11:35:35.109Z,79.02
2017-12-19T11:36:35.104Z,79.02
2017-12-19T11:37:35.101Z,78.98
2017-12-19T11:38:35.096Z,79.26
2017-12-19T11:39:35.092Z,79.36
2017-12-19T11:40:35.088Z,80.21
2017-12-19T11:41:35.083Z,80.49
2017-12-19T11:42:35.079Z,80.58
2017-12-19T11:43:35.073Z,81.06
2017-12-19T11:44:35.068Z,81.72
2017-12-19T11:45:35.065Z,81.25
2017-12-19T11:46:35.062Z,81.25
2017-12-19T11:47:35.054Z,81.34
2017-12-19T11:48:35.050Z,81.15
2017-12-19T11:49:35.045Z,81.34
2017-12-19T11:50:35.039Z,81.49
2017-12-19T11:51:35.033Z,81.68
2017-12-19T11:52:35.032Z,82.15
2017-12-19T11:53:35.025Z,82.44
2017-12-19T11:54:35.017Z,82.82
2017-12-19T11:55:35.014Z,82.72
2017-12-19T11:56:35.010Z,82.91
2017-12-19T11:57:35.003Z,83.29
2017-12-19T11:58:34.998Z,83.20
2017-12-19T11:59:34.992Z,82.15
2017-12-19T12:00:34.986Z,81.96
2017-12-19T12:01:34.981Z,82.10
2017-12-19T12:02:34.987Z,82.20
2017-12-19T12:03:34.970Z,82.01
2017-12-19T12:04:34.964Z,81.96
2017-12-19T12:05:34.959Z,82.95
2017-12-19T12:06:34.953Z,82.95
2017-12-19T12:07:34.948Z,82.95
2017-12-19T12:08:34.943Z,82.86
2017-12-19T12:09:34.938Z,83.14
2017-12-19T12:10:34.931Z,83.14
2017-12-19T12:11:34.926Z,83.14
2017-12-19T12:12:34.926Z,83.71
2017-12-19T12:13:34.914Z,82.95
2017-12-19T12:14:34.908Z,83.33
2017-12-19T12:15:34.903Z,83.14
2017-12-19T12:16:34.898Z,83.24
2017-12-19T12:17:34.893Z,83.29
2017-12-19T12:18:34.886Z,83.29
2017-12-19T12:19:34.880Z,83.95
2017-12-19T12:20:34.874Z,83.71
2017-12-19T12:21:34.868Z,83.76
2017-12-19T12:22:34.863Z,84.09
2017-12-19T12:23:34.858Z,84.19
2017-12-19T12:24:34.852Z,84.61
2017-12-19T12:25:34.846Z,84.42
2017-12-19T12:26:34.840Z,84.42
2017-12-19T12:27:34.837Z,84.61
2017-12-19T12:28:34.834Z,84.05
2017-12-19T12:29:34.881Z,83.95
2017-12-19T12:30:34.816Z,84.23
2017-12-19T12:31:34.811Z,84.61
2017-12-19T12:32:34.804Z,84.71
2017-12-19T12:33:34.800Z,85.19
2017-12-19T12:34:34.791Z,85.09
2017-12-19T12:35:34.786Z,85.00
2017-12-19T12:36:34.789Z,84.71
2017-12-19T12:37:34.774Z,85.57
2017-12-19T12:38:34.767Z,85.47
2017-12-19T12:39:34.764Z,85.57
2017-12-19T12:40:34.755Z,85.75
2017-12-19T12:41:34.750Z,85.38
2017-12-19T12:42:34.748Z,85.75
2017-12-19T12:43:34.740Z,85.19
2017-12-19T12:44:34.730Z,85.00
2017-12-19T12:45:34.725Z,85.00
2017-12-19T12:46:34.719Z,85.19
2017-12-19T12:47:34.712Z,85.19
2017-12-19T12:48:34.713Z,84.90
2017-12-19T12:49:34.701Z,84.90
2017-12-19T12:50:34.693Z,85.00
2017-12-19T12:51:34.688Z,85.00
2017-12-19T12:52:34.682Z,85.19